EBCI Airport Information

Runway Information
Runway 07 Length 8366 ft width 148 ft
Elevation 611 ft Threshold 1477 ft Heading 66
Runway 25 Length 8366 ft Width 148 ft
Elevation 583 ft Threshold 0 ft Heading 246
Airport Frequencies
Type APP Name CHARLEROI Frequency 133.125 MHZ
Type ATIS Name ATIS Frequency 134.625 MHZ
Type GND Name CHARLEROI Frequency 121.8 MHZ
Type TWR Name CHARLEROI Frequency 121.3 MHZ
Airport Navaids
Type VOR-DME Name Gosly Frequency 115700 KHZ
Type NDB Name Charleroi Frequency 323 KHZ
Airport Weather Information & NOTAM
ADDS - METARS form results

(0133 UTC 19 August 2018)
 
METAR text: EBCI 190120Z 19004KT 9999 FEW034 14/13 Q1023 NOSIG
Conditions at: EBCI (CHARLEROI/GOSSEL, BE) observed 0120 UTC 19 August 2018
Temperature: 14.0°C (57°F)
Dewpoint: 13.0°C (55°F) [RH = 94%]
Pressure (altimeter): 30.21 inches Hg (1023.0 mb)
Winds: from the S (190 degrees) at 5 MPH (4 knots; 2.1 m/s)
Visibility: 6 or more miles (10+ km)
Ceiling: at least 12,000 feet AGL
Clouds: few clouds at 3400 feet AGL
Weather: no significant weather observed at this time

METAR text: EBCI 190050Z 20003KT 9999 FEW034 14/13 Q1023 NOSIG
Conditions at: EBCI (CHARLEROI/GOSSEL, BE) observed 0050 UTC 19 August 2018
Temperature: 14.0°C (57°F)
Dewpoint: 13.0°C (55°F) [RH = 94%]
Pressure (altimeter): 30.21 inches Hg (1023.0 mb)
Winds: from the SSW (200 degrees) at 3 MPH (3 knots; 1.6 m/s)
Visibility: 6 or more miles (10+ km)
Ceiling: at least 12,000 feet AGL
Clouds: few clouds at 3400 feet AGL
Weather: no significant weather observed at this time